sensor_id;sensor_type;location;lat;lon;timestamp;pressure;altitude;pressure_sealevel;temperature;humidity
9419;BME280;4748;50.802;7.132;2022-10-16T03:31:42;100592.06;;;15.27;100.00
9419;BME280;4748;50.802;7.132;2022-10-16T03:34:08;100573.72;;;15.29;100.00
9419;BME280;4748;50.802;7.132;2022-10-16T03:36:33;100587.75;;;15.31;100.00
9419;BME280;4748;50.802;7.132;2022-10-16T03:38:58;100583.22;;;15.32;100.00
9419;BME280;4748;50.802;7.132;2022-10-16T03:41:24;100578.63;;;15.32;100.00
9419;BME280;4748;50.802;7.132;2022-10-16T03:43:49;100585.06;;;15.31;100.00
9419;BME280;4748;50.802;7.132;2022-10-16T03:46:14;100580.81;;;15.35;100.00
9419;BME280;4748;50.802;7.132;2022-10-16T03:48:40;100584.34;;;15.35;100.00
9419;BME280;4748;50.802;7.132;2022-10-16T03:51:05;100594.03;;;15.36;100.00
9419;BME280;4748;50.802;7.132;2022-10-16T03:53:31;100592.19;;;15.37;100.00
9419;BME280;4748;50.802;7.132;2022-10-16T03:55:56;100588.13;;;15.39;100.00
9419;BME280;4748;50.802;7.132;2022-10-16T03:58:22;100600.91;;;15.44;100.00
9419;BME280;4748;50.802;7.132;2022-10-16T04:00:47;100601.16;;;15.42;100.00
9419;BME280;4748;50.802;7.132;2022-10-16T04:03:13;100622.41;;;15.39;100.00
9419;BME280;4748;50.802;7.132;2022-10-16T04:05:39;100623.03;;;15.46;100.00
9419;BME280;4748;50.802;7.132;2022-10-16T04:08:05;100621.66;;;15.43;100.00
9419;BME280;4748;50.802;7.132;2022-10-16T04:10:30;100628.44;;;15.46;100.00
9419;BME280;4748;50.802;7.132;2022-10-16T04:12:55;100633.03;;;15.45;100.00
9419;BME280;4748;50.802;7.132;2022-10-16T04:15:22;100639.06;;;15.52;100.00
9419;BME280;4748;50.802;7.132;2022-10-16T04:17:48;100639.06;;;15.52;100.00
9419;BME280;4748;50.802;7.132;2022-10-16T04:20:14;100631.50;;;15.54;100.00
9419;BME280;4748;50.802;7.132;2022-10-16T04:22:39;100643.09;;;15.55;100.00
9419;BME280;4748;50.802;7.132;2022-10-16T04:25:05;100631.25;;;15.56;100.00
9419;BME280;4748;50.802;7.132;2022-10-16T04:27:30;100625.34;;;15.59;100.00
9419;BME280;4748;50.802;7.132;2022-10-16T04:29:57;100628.03;;;15.59;100.00
9419;BME280;4748;50.802;7.132;2022-10-16T04:32:22;100639.97;;;15.63;100.00
9419;BME280;4748;50.802;7.132;2022-10-16T04:34:48;100641.28;;;15.60;100.00
9419;BME280;4748;50.802;7.132;2022-10-16T04:37:13;100651.03;;;15.61;100.00
9419;BME280;4748;50.802;7.132;2022-10-16T04:39:38;100663.47;;;15.62;100.00
9419;BME280;4748;50.802;7.132;2022-10-16T04:42:03;100653.72;;;15.61;100.00
9419;BME280;4748;50.802;7.132;2022-10-16T04:44:29;100654.03;;;15.65;100.00
9419;BME280;4748;50.802;7.132;2022-10-16T04:46:54;100654.03;;;15.65;100.00
9419;BME280;4748;50.802;7.132;2022-10-16T04:49:20;100659.16;;;15.66;100.00
9419;BME280;4748;50.802;7.132;2022-10-16T04:51:45;100664.00;;;15.64;100.00
9419;BME280;4748;50.802;7.132;2022-10-16T04:54:10;100655.66;;;15.66;100.00
9419;BME280;4748;50.802;7.132;2022-10-16T04:56:36;100656.97;;;15.63;100.00
9419;BME280;4748;50.802;7.132;2022-10-16T04:59:08;100652.72;;;15.67;100.00
9419;BME280;4748;50.802;7.132;2022-10-16T05:01:34;100672.66;;;15.66;100.00
9419;BME280;4748;50.802;7.132;2022-10-16T05:03:59;100647.56;;;15.66;100.00
9419;BME280;4748;50.802;7.132;2022-10-16T05:06:24;100661.88;;;15.66;100.00
9419;BME280;4748;50.802;7.132;2022-10-16T05:08:50;100672.38;;;15.63;100.00
9419;BME280;4748;50.802;7.132;2022-10-16T05:11:15;100682.81;;;15.59;100.00
9419;BME280;4748;50.802;7.132;2022-10-16T05:13:40;100679.41;;;15.64;100.00
9419;BME280;4748;50.802;7.132;2022-10-16T05:16:06;100678.56;;;15.63;100.00
9419;BME280;4748;50.802;7.132;2022-10-16T05:18:31;100681.59;;;15.67;100.00
9419;BME280;4748;50.802;7.132;2022-10-16T05:20:57;100677.25;;;15.66;100.00
9419;BME280;4748;50.802;7.132;2022-10-16T05:23:22;100677.00;;;15.67;100.00
9419;BME280;4748;50.802;7.132;2022-10-16T05:25:55;100659.41;;;15.65;100.00
9419;BME280;4748;50.802;7.132;2022-10-16T05:28:26;100673.25;;;15.68;100.00
9419;BME280;4748;50.802;7.132;2022-10-16T05:30:52;100680.00;;;15.71;100.00
9419;BME280;4748;50.802;7.132;2022-10-16T05:33:24;100688.69;;;15.73;100.00
9419;BME280;4748;50.802;7.132;2022-10-16T05:35:50;100686.03;;;15.78;100.00
9419;BME280;4748;50.802;7.132;2022-10-16T05:38:17;100685.72;;;15.74;100.00
9419;BME280;4748;50.802;7.132;2022-10-16T05:40:42;100695.22;;;15.77;100.00
9419;BME280;4748;50.802;7.132;2022-10-16T05:43:08;100683.56;;;15.76;100.00
9419;BME280;4748;50.802;7.132;2022-10-16T05:45:33;100676.06;;;15.78;100.00
9419;BME280;4748;50.802;7.132;2022-10-16T05:47:59;100682.53;;;15.77;100.00
9419;BME280;4748;50.802;7.132;2022-10-16T05:50:25;100691.94;;;15.75;100.00
9419;BME280;4748;50.802;7.132;2022-10-16T05:52:50;100703.31;;;15.77;100.00
9419;BME280;4748;50.802;7.132;2022-10-16T05:55:16;100709.47;;;15.72;100.00
9419;BME280;4748;50.802;7.132;2022-10-16T05:57:41;100712.47;;;15.76;100.00
9419;BME280;4748;50.802;7.132;2022-10-16T06:00:07;100712.22;;;15.77;100.00
9419;BME280;4748;50.802;7.132;2022-10-16T06:02:32;100724.31;;;15.75;100.00
9419;BME280;4748;50.802;7.132;2022-10-16T06:04:58;100725.16;;;15.75;100.00
9419;BME280;4748;50.802;7.132;2022-10-16T06:07:23;100724.31;;;15.75;100.00
9419;BME280;4748;50.802;7.132;2022-10-16T06:09:49;100722.72;;;15.74;100.00
9419;BME280;4748;50.802;7.132;2022-10-16T06:12:16;100724.31;;;15.75;100.00
9419;BME280;4748;50.802;7.132;2022-10-16T06:14:41;100741.66;;;15.79;100.00
9419;BME280;4748;50.802;7.132;2022-10-16T06:17:07;100733.81;;;15.77;100.00
9419;BME280;4748;50.802;7.132;2022-10-16T06:19:32;100737.31;;;15.78;100.00
9419;BME280;4748;50.802;7.132;2022-10-16T06:21:57;100742.72;;;15.78;100.00
9419;BME280;4748;50.802;7.132;2022-10-16T06:24:23;100749.72;;;15.74;100.00
9419;BME280;4748;50.802;7.132;2022-10-16T06:26:49;100752.88;;;15.71;100.00
9419;BME280;4748;50.802;7.132;2022-10-16T06:29:14;100754.97;;;15.64;100.00
9419;BME280;4748;50.802;7.132;2022-10-16T06:31:40;100763.94;;;15.69;100.00
9419;BME280;4748;50.802;7.132;2022-10-16T06:34:05;100764.78;;;15.70;100.00
9419;BME280;4748;50.802;7.132;2022-10-16T06:36:34;100756.94;;;15.68;100.00
9419;BME280;4748;50.802;7.132;2022-10-16T06:39:00;100772.28;;;15.68;100.00
9419;BME280;4748;50.802;7.132;2022-10-16T06:41:25;100779.88;;;15.71;100.00
9419;BME280;4748;50.802;7.132;2022-10-16T06:43:51;100797.81;;;15.77;100.00
9419;BME280;4748;50.802;7.132;2022-10-16T06:46:20;100792.97;;;15.79;100.00
9419;BME280;4748;50.802;7.132;2022-10-16T06:48:46;100786.81;;;15.83;100.00
9419;BME280;4748;50.802;7.132;2022-10-16T06:51:16;100790.22;;;15.74;100.00
9419;BME280;4748;50.802;7.132;2022-10-16T06:53:47;100791.72;;;15.86;100.00
9419;BME280;4748;50.802;7.132;2022-10-16T06:56:21;100800.19;;;15.94;100.00
9419;BME280;4748;50.802;7.132;2022-10-16T06:58:48;100807.88;;;16.02;100.00
9419;BME280;4748;50.802;7.132;2022-10-16T07:01:14;100808.69;;;16.03;100.00
9419;BME280;4748;50.802;7.132;2022-10-16T07:03:41;100810.94;;;16.11;100.00
9419;BME280;4748;50.802;7.132;2022-10-16T07:06:09;100806.19;;;16.18;100.00
9419;BME280;4748;50.802;7.132;2022-10-16T07:08:37;100812.13;;;16.20;100.00
9419;BME280;4748;50.802;7.132;2022-10-16T07:11:05;100811.56;;;16.18;100.00
9419;BME280;4748;50.802;7.132;2022-10-16T07:13:38;100823.19;;;16.18;100.00
9419;BME280;4748;50.802;7.132;2022-10-16T07:16:13;100834.53;;;16.20;100.00
9419;BME280;4748;50.802;7.132;2022-10-16T07:18:38;100841.34;;;16.23;100.00
9419;BME280;4748;50.802;7.132;2022-10-16T07:21:06;100854.13;;;16.27;100.00
9419;BME280;4748;50.802;7.132;2022-10-16T07:23:32;100840.44;;;16.34;100.00
9419;BME280;4748;50.802;7.132;2022-10-16T07:25:58;100853.16;;;16.33;100.00
9419;BME280;4748;50.802;7.132;2022-10-16T07:28:23;100860.41;;;16.33;100.00
9419;BME280;4748;50.802;7.132;2022-10-16T07:30:48;100862.34;;;16.37;100.00
9419;BME280;4748;50.802;7.132;2022-10-16T07:33:14;100868.28;;;16.34;100.00
9419;BME280;4748;50.802;7.132;2022-10-16T07:35:59;100866.69;;;16.38;100.00
9419;BME280;4748;50.802;7.132;2022-10-16T07:38:25;100879.16;;;16.39;100.00
9419;BME280;4748;50.802;7.132;2022-10-16T07:41:02;100885.19;;;16.46;100.00
9419;BME280;4748;50.802;7.132;2022-10-16T07:43:28;100890.13;;;16.54;100.00
9419;BME280;4748;50.802;7.132;2022-10-16T07:45:54;100876.13;;;16.57;100.00
9419;BME280;4748;50.802;7.132;2022-10-16T07:48:20;100885.31;;;16.56;100.00
9419;BME280;4748;50.802;7.132;2022-10-16T07:50:46;100890.84;;;16.66;100.00
9419;BME280;4748;50.802;7.132;2022-10-16T07:53:12;100896.50;;;16.64;100.00
9419;BME280;4748;50.802;7.132;2022-10-16T07:55:37;100893.53;;;16.66;100.00
9419;BME280;4748;50.802;7.132;2022-10-16T07:58:03;100903.97;;;16.57;100.00
9419;BME280;4748;50.802;7.132;2022-10-16T08:00:29;100916.75;;;16.62;100.00
9419;BME280;4748;50.802;7.132;2022-10-16T08:02:58;100912.72;;;16.64;100.00
9419;BME280;4748;50.802;7.132;2022-10-16T08:05:28;100916.75;;;16.62;100.00
9419;BME280;4748;50.802;7.132;2022-10-16T08:07:55;100921.53;;;16.55;100.00
9419;BME280;4748;50.802;7.132;2022-10-16T08:10:22;100920.88;;;16.48;100.00
9419;BME280;4748;50.802;7.132;2022-10-16T08:12:48;100930.06;;;16.47;100.00
9419;BME280;4748;50.802;7.132;2022-10-16T08:15:13;100916.16;;;16.38;100.00
9419;BME280;4748;50.802;7.132;2022-10-16T08:17:38;100920.75;;;16.38;100.00
9419;BME280;4748;50.802;7.132;2022-10-16T08:20:04;100927.81;;;16.39;100.00
9419;BME280;4748;50.802;7.132;2022-10-16T08:22:30;100939.97;;;16.41;100.00
9419;BME280;4748;50.802;7.132;2022-10-16T08:24:55;100935.28;;;16.53;100.00
9419;BME280;4748;50.802;7.132;2022-10-16T08:27:21;100937.03;;;16.86;100.00
9419;BME280;4748;50.802;7.132;2022-10-16T08:29:48;100938.38;;;17.09;100.00
9419;BME280;4748;50.802;7.132;2022-10-16T08:32:13;100942.53;;;17.43;100.00
9419;BME280;4748;50.802;7.132;2022-10-16T08:34:38;100948.19;;;17.68;100.00
9419;BME280;4748;50.802;7.132;2022-10-16T08:37:03;100949.41;;;17.87;100.00
9419;BME280;4748;50.802;7.132;2022-10-16T08:39:29;100964.16;;;18.05;100.00
9419;BME280;4748;50.802;7.132;2022-10-16T08:42:09;100968.13;;;18.24;100.00
9419;BME280;4748;50.802;7.132;2022-10-16T08:45:13;100977.16;;;18.40;100.00
9419;BME280;4748;50.802;7.132;2022-10-16T08:47:44;100984.22;;;18.36;100.00
9419;BME280;4748;50.802;7.132;2022-10-16T08:50:23;100986.19;;;18.50;100.00
9419;BME280;4748;50.802;7.132;2022-10-16T08:52:49;100993.84;;;18.63;100.00
9419;BME280;4748;50.802;7.132;2022-10-16T08:55:38;101012.63;;;18.74;100.00
9419;BME280;4748;50.802;7.132;2022-10-16T08:58:26;100997.78;;;18.92;100.00
9419;BME280;4748;50.802;7.132;2022-10-16T09:00:57;100995.44;;;19.10;100.00
9419;BME280;4748;50.802;7.132;2022-10-16T09:05:57;101007.97;;;19.21;100.00
9419;BME280;4748;50.802;7.132;2022-10-16T09:16:34;101018.66;;;18.86;100.00
9419;BME280;4748;50.802;7.132;2022-10-16T09:19:12;101025.88;;;18.71;100.00
9419;BME280;4748;50.802;7.132;2022-10-16T09:21:44;101030.56;;;18.80;100.00
9419;BME280;4748;50.802;7.132;2022-10-16T09:24:14;101022.31;;;19.11;100.00
9419;BME280;4748;50.802;7.132;2022-10-16T09:26:42;101031.25;;;19.12;100.00
9419;BME280;4748;50.802;7.132;2022-10-16T09:29:14;101024.19;;;19.06;100.00
9419;BME280;4748;50.802;7.132;2022-10-16T09:31:40;101016.91;;;19.26;100.00
9419;BME280;4748;50.802;7.132;2022-10-16T09:34:06;101036.78;;;19.42;100.00
9419;BME280;4748;50.802;7.132;2022-10-16T09:36:42;101029.78;;;19.50;100.00
9419;BME280;4748;50.802;7.132;2022-10-16T09:39:11;101024.88;;;19.47;100.00
9419;BME280;4748;50.802;7.132;2022-10-16T09:41:42;101034.34;;;19.40;100.00
9419;BME280;4748;50.802;7.132;2022-10-16T09:44:40;101034.63;;;19.39;100.00
9419;BME280;4748;50.802;7.132;2022-10-16T09:49:38;101022.41;;;19.56;100.00
9419;BME280;4748;50.802;7.132;2022-10-16T09:52:14;101026.53;;;19.68;100.00
9419;BME280;4748;50.802;7.132;2022-10-16T09:54:54;101031.66;;;19.50;100.00
9419;BME280;4748;50.802;7.132;2022-10-16T09:57:21;101021.38;;;19.67;100.00
9419;BME280;4748;50.802;7.132;2022-10-16T09:59:51;101031.22;;;19.98;100.00
9419;BME280;4748;50.802;7.132;2022-10-16T10:02:20;101028.50;;;19.98;100.00
9419;BME280;4748;50.802;7.132;2022-10-16T10:04:52;101032.03;;;20.08;100.00
9419;BME280;4748;50.802;7.132;2022-10-16T10:07:27;101039.34;;;20.22;100.00
9419;BME280;4748;50.802;7.132;2022-10-16T10:09:56;101030.13;;;19.98;100.00
9419;BME280;4748;50.802;7.132;2022-10-16T10:14:55;101023.84;;;20.38;100.00
9419;BME280;4748;50.802;7.132;2022-10-16T10:17:28;101012.66;;;20.54;100.00
9419;BME280;4748;50.802;7.132;2022-10-16T10:19:57;101015.34;;;20.59;100.00
9419;BME280;4748;50.802;7.132;2022-10-16T10:41:40;101016.00;;;21.67;100.00
9419;BME280;4748;50.802;7.132;2022-10-16T10:52:28;101015.84;;;21.87;100.00
9419;BME280;4748;50.802;7.132;2022-10-16T10:57:42;101019.19;;;21.79;100.00
9419;BME280;4748;50.802;7.132;2022-10-16T11:00:19;101025.22;;;21.76;100.00
9419;BME280;4748;50.802;7.132;2022-10-16T11:03:09;101024.56;;;21.89;100.00
9419;BME280;4748;50.802;7.132;2022-10-16T11:06:12;101023.72;;;21.88;100.00
9419;BME280;4748;50.802;7.132;2022-10-16T11:08:44;101020.72;;;21.90;100.00
9419;BME280;4748;50.802;7.132;2022-10-16T11:11:16;101022.44;;;21.81;100.00
9419;BME280;4748;50.802;7.132;2022-10-16T11:16:30;101025.81;;;21.68;100.00
9419;BME280;4748;50.802;7.132;2022-10-16T11:19:05;101025.53;;;21.69;100.00
9419;BME280;4748;50.802;7.132;2022-10-16T11:21:44;101032.53;;;22.13;100.00
9419;BME280;4748;50.802;7.132;2022-10-16T11:27:20;101026.84;;;22.43;100.00
9419;BME280;4748;50.802;7.132;2022-10-16T11:29:53;101031.72;;;22.46;100.00
9419;BME280;4748;50.802;7.132;2022-10-16T11:32:26;101028.97;;;22.46;100.00
9419;BME280;4748;50.802;7.132;2022-10-16T11:34:59;101031.69;;;22.51;100.00
9419;BME280;4748;50.802;7.132;2022-10-16T11:37:41;101029.75;;;22.52;100.00
9419;BME280;4748;50.802;7.132;2022-10-16T11:40:33;101022.91;;;22.54;100.00
9419;BME280;4748;50.802;7.132;2022-10-16T11:43:43;101027.28;;;22.78;100.00
9419;BME280;4748;50.802;7.132;2022-10-16T11:46:16;101029.44;;;22.81;100.00
9419;BME280;4748;50.802;7.132;2022-10-16T11:48:54;101031.06;;;23.06;100.00
9419;BME280;4748;50.802;7.132;2022-10-16T11:51:40;101027.44;;;23.33;100.00
9419;BME280;4748;50.802;7.132;2022-10-16T11:54:21;101037.91;;;23.26;100.00
9419;BME280;4748;50.802;7.132;2022-10-16T11:56:53;101039.56;;;23.27;100.00
9419;BME280;4748;50.802;7.132;2022-10-16T11:59:37;101033.25;;;23.27;100.00
9419;BME280;4748;50.802;7.132;2022-10-16T12:08:11;101041.25;;;23.00;100.00
9419;BME280;4748;50.802;7.132;2022-10-16T12:10:38;101040.34;;;22.81;100.00
9419;BME280;4748;50.802;7.132;2022-10-16T12:13:26;101039.59;;;22.76;100.00
9419;BME280;4748;50.802;7.132;2022-10-16T12:15:50;101044.91;;;22.91;100.00
9419;BME280;4748;50.802;7.132;2022-10-16T12:18:24;101036.94;;;22.71;100.00
9419;BME280;4748;50.802;7.132;2022-10-16T12:20:59;101040.16;;;22.73;100.00
9419;BME280;4748;50.802;7.132;2022-10-16T12:23:30;101038.50;;;23.00;100.00
9419;BME280;4748;50.802;7.132;2022-10-16T12:25:58;101032.84;;;22.97;100.00
9419;BME280;4748;50.802;7.132;2022-10-16T12:28:28;101022.94;;;23.01;100.00
9419;BME280;4748;50.802;7.132;2022-10-16T12:30:56;101032.03;;;22.91;100.00
9419;BME280;4748;50.802;7.132;2022-10-16T12:33:25;101043.50;;;22.93;100.00
9419;BME280;4748;50.802;7.132;2022-10-16T12:35:51;101042.69;;;22.93;100.00
9419;BME280;4748;50.802;7.132;2022-10-16T12:38:25;101033.38;;;22.94;100.00
9419;BME280;4748;50.802;7.132;2022-10-16T12:41:04;101041.13;;;22.87;100.00
9419;BME280;4748;50.802;7.132;2022-10-16T12:43:41;101041.75;;;22.79;100.00
9419;BME280;4748;50.802;7.132;2022-10-16T12:48:32;101033.63;;;22.74;100.00
9419;BME280;4748;50.802;7.132;2022-10-16T12:51:19;101030.69;;;22.89;100.00
9419;BME280;4748;50.802;7.132;2022-10-16T12:53:58;101016.47;;;22.68;100.00
9419;BME280;4748;50.802;7.132;2022-10-16T12:56:38;101014.38;;;22.84;100.00
9419;BME280;4748;50.802;7.132;2022-10-16T12:59:15;101016.16;;;22.70;100.00
9419;BME280;4748;50.802;7.132;2022-10-16T13:05:10;101028.78;;;22.66;100.00
9419;BME280;4748;50.802;7.132;2022-10-16T13:10:21;101035.28;;;22.70;100.00
9419;BME280;4748;50.802;7.132;2022-10-16T13:15:46;101034.66;;;22.78;100.00
9419;BME280;4748;50.802;7.132;2022-10-16T13:20:56;101024.44;;;23.11;100.00
9419;BME280;4748;50.802;7.132;2022-10-16T13:26:22;101036.06;;;22.99;100.00
9419;BME280;4748;50.802;7.132;2022-10-16T13:28:51;101039.28;;;23.06;100.00
9419;BME280;4748;50.802;7.132;2022-10-16T13:31:22;101030.72;;;23.12;100.00
9419;BME280;4748;50.802;7.132;2022-10-16T13:33:54;101046.66;;;23.05;100.00
9419;BME280;4748;50.802;7.132;2022-10-16T13:36:24;101043.25;;;22.90;100.00
9419;BME280;4748;50.802;7.132;2022-10-16T13:41:37;101044.31;;;22.94;100.00
9419;BME280;4748;50.802;7.132;2022-10-16T13:44:04;101046.41;;;22.78;100.00
9419;BME280;4748;50.802;7.132;2022-10-16T13:46:30;101041.28;;;22.72;100.00
9419;BME280;4748;50.802;7.132;2022-10-16T13:49:12;101040.66;;;22.80;100.00
9419;BME280;4748;50.802;7.132;2022-10-16T13:51:38;101032.38;;;22.61;100.00
9419;BME280;4748;50.802;7.132;2022-10-16T13:54:03;101025.47;;;22.69;100.00
9419;BME280;4748;50.802;7.132;2022-10-16T13:56:31;101032.19;;;22.53;100.00
9419;BME280;4748;50.802;7.132;2022-10-16T13:59:02;101034.06;;;22.57;100.00
9419;BME280;4748;50.802;7.132;2022-10-16T14:01:30;101037.94;;;22.52;100.00
9419;BME280;4748;50.802;7.132;2022-10-16T14:04:04;101042.72;;;22.36;100.00
9419;BME280;4748;50.802;7.132;2022-10-16T14:06:31;101037.84;;;22.33;100.00
9419;BME280;4748;50.802;7.132;2022-10-16T14:09:07;101045.25;;;22.28;100.00
9419;BME280;4748;50.802;7.132;2022-10-16T14:11:45;101034.81;;;22.35;100.00
9419;BME280;4748;50.802;7.132;2022-10-16T14:14:12;101033.16;;;22.39;100.00
9419;BME280;4748;50.802;7.132;2022-10-16T14:16:40;101041.41;;;22.34;100.00
9419;BME280;4748;50.802;7.132;2022-10-16T14:19:18;101039.06;;;22.22;100.00
9419;BME280;4748;50.802;7.132;2022-10-16T14:21:44;101039.47;;;22.34;100.00
9419;BME280;4748;50.802;7.132;2022-10-16T14:24:13;101042.31;;;22.24;100.00
9419;BME280;4748;50.802;7.132;2022-10-16T14:26:45;101030.22;;;22.30;100.00
9419;BME280;4748;50.802;7.132;2022-10-16T14:29:18;101023.19;;;22.24;100.00
9419;BME280;4748;50.802;7.132;2022-10-16T14:36:54;101024.19;;;22.33;100.00
9419;BME280;4748;50.802;7.132;2022-10-16T14:39:22;101033.75;;;22.31;100.00
9419;BME280;4748;50.802;7.132;2022-10-16T14:41:50;101022.03;;;22.30;100.00
9419;BME280;4748;50.802;7.132;2022-10-16T14:44:27;101030.22;;;22.30;100.00
9419;BME280;4748;50.802;7.132;2022-10-16T14:46:53;101030.50;;;22.34;100.00
9419;BME280;4748;50.802;7.132;2022-10-16T14:49:20;101029.19;;;22.26;100.00
9419;BME280;4748;50.802;7.132;2022-10-16T14:51:47;101025.19;;;22.14;100.00
9419;BME280;4748;50.802;7.132;2022-10-16T14:54:15;101028.19;;;22.12;100.00
9419;BME280;4748;50.802;7.132;2022-10-16T14:56:51;101024.13;;;22.10;100.00
9419;BME280;4748;50.802;7.132;2022-10-16T14:59:37;101032.38;;;22.00;100.00
9419;BME280;4748;50.802;7.132;2022-10-16T15:02:32;101032.13;;;21.97;100.00
9419;BME280;4748;50.802;7.132;2022-10-16T15:05:22;101038.72;;;21.91;100.00
9419;BME280;4748;50.802;7.132;2022-10-16T15:07:49;101033.84;;;21.88;100.00
9419;BME280;4748;50.802;7.132;2022-10-16T15:10:16;101028.22;;;21.74;100.00
9419;BME280;4748;50.802;7.132;2022-10-16T15:12:42;101029.66;;;21.62;100.00
9419;BME280;4748;50.802;7.132;2022-10-16T15:17:49;101042.22;;;21.63;100.00
9419;BME280;4748;50.802;7.132;2022-10-16T15:20:18;101039.03;;;21.41;100.00
9419;BME280;4748;50.802;7.132;2022-10-16T15:22:43;101042.88;;;21.35;100.00
9419;BME280;4748;50.802;7.132;2022-10-16T15:28:00;101056.63;;;21.05;100.00
9419;BME280;4748;50.802;7.132;2022-10-16T15:30:27;101060.44;;;21.04;100.00
9419;BME280;4748;50.802;7.132;2022-10-16T15:32:53;101059.63;;;21.04;100.00
9419;BME280;4748;50.802;7.132;2022-10-16T15:35:19;101052.84;;;20.97;100.00
9419;BME280;4748;50.802;7.132;2022-10-16T15:37:46;101063.19;;;21.00;100.00
9419;BME280;4748;50.802;7.132;2022-10-16T15:40:11;101058.88;;;20.94;100.00
9419;BME280;4748;50.802;7.132;2022-10-16T15:42:37;101042.59;;;20.74;100.00
9419;BME280;4748;50.802;7.132;2022-10-16T15:45:02;101039.59;;;20.75;100.00
9419;BME280;4748;50.802;7.132;2022-10-16T15:47:29;101045.59;;;20.72;100.00
9419;BME280;4748;50.802;7.132;2022-10-16T15:49:54;101049.66;;;20.70;100.00
9419;BME280;4748;50.802;7.132;2022-10-16T15:52:19;101042.56;;;20.64;100.00
9419;BME280;4748;50.802;7.132;2022-10-16T15:54:45;101036.03;;;20.65;100.00
9419;BME280;4748;50.802;7.132;2022-10-16T15:57:10;101043.63;;;20.68;100.00
9419;BME280;4748;50.802;7.132;2022-10-16T15:59:36;101045.31;;;20.69;100.00
9419;BME280;4748;50.802;7.132;2022-10-16T16:02:01;101040.38;;;20.66;100.00
9419;BME280;4748;50.802;7.132;2022-10-16T16:04:29;101048.56;;;20.61;100.00
9419;BME280;4748;50.802;7.132;2022-10-16T16:06:54;101057.53;;;20.61;100.00
9419;BME280;4748;50.802;7.132;2022-10-16T16:09:20;101049.13;;;20.38;100.00
9419;BME280;4748;50.802;7.132;2022-10-16T16:11:45;101046.13;;;20.45;100.00
9419;BME280;4748;50.802;7.132;2022-10-16T16:14:12;101045.88;;;20.41;100.00
9419;BME280;4748;50.802;7.132;2022-10-16T16:16:39;101047.25;;;20.39;100.00
9419;BME280;4748;50.802;7.132;2022-10-16T16:19:05;101035.00;;;20.31;100.00
9419;BME280;4748;50.802;7.132;2022-10-16T16:21:32;101045.88;;;20.26;100.00
9419;BME280;4748;50.802;7.132;2022-10-16T16:23:58;101046.44;;;20.28;100.00
9419;BME280;4748;50.802;7.132;2022-10-16T16:26:25;101054.59;;;20.28;100.00
9419;BME280;4748;50.802;7.132;2022-10-16T16:28:51;101057.88;;;20.20;100.00
9419;BME280;4748;50.802;7.132;2022-10-16T16:31:17;101051.59;;;20.25;100.00
9419;BME280;4748;50.802;7.132;2022-10-16T16:33:42;101050.81;;;20.04;100.00
9419;BME280;4748;50.802;7.132;2022-10-16T16:36:07;101054.03;;;20.06;100.00
9419;BME280;4748;50.802;7.132;2022-10-16T16:38:34;101049.19;;;20.08;100.00
9419;BME280;4748;50.802;7.132;2022-10-16T16:40:59;101044.53;;;19.99;100.00
9419;BME280;4748;50.802;7.132;2022-10-16T16:43:26;101040.75;;;20.00;100.00
9419;BME280;4748;50.802;7.132;2022-10-16T16:45:52;101051.88;;;20.03;100.00
9419;BME280;4748;50.802;7.132;2022-10-16T16:48:18;101060.56;;;20.05;100.00
9419;BME280;4748;50.802;7.132;2022-10-16T16:50:44;101066.00;;;19.91;100.00
9419;BME280;4748;50.802;7.132;2022-10-16T16:53:09;101059.19;;;19.88;100.00
9419;BME280;4748;50.802;7.132;2022-10-16T16:55:35;101052.97;;;19.88;100.00
9419;BME280;4748;50.802;7.132;2022-10-16T16:58:00;101073.63;;;19.89;100.00
9419;BME280;4748;50.802;7.132;2022-10-16T17:00:26;101065.16;;;19.80;100.00
9419;BME280;4748;50.802;7.132;2022-10-16T17:02:51;101090.41;;;19.76;100.00
9419;BME280;4748;50.802;7.132;2022-10-16T17:05:17;101071.94;;;19.78;100.00
9419;BME280;4748;50.802;7.132;2022-10-16T17:07:43;101070.88;;;19.79;100.00
9419;BME280;4748;50.802;7.132;2022-10-16T17:10:08;101072.47;;;19.80;100.00
9419;BME280;4748;50.802;7.132;2022-10-16T17:12:34;101080.63;;;19.75;100.00
9419;BME280;4748;50.802;7.132;2022-10-16T17:14:59;101079.78;;;19.74;100.00
9419;BME280;4748;50.802;7.132;2022-10-16T17:17:25;101075.72;;;19.67;100.00
9419;BME280;4748;50.802;7.132;2022-10-16T17:19:51;101065.38;;;19.64;100.00
9419;BME280;4748;50.802;7.132;2022-10-16T17:22:17;101068.09;;;19.64;100.00
9419;BME280;4748;50.802;7.132;2022-10-16T17:24:43;101066.47;;;19.63;100.00
9419;BME280;4748;50.802;7.132;2022-10-16T17:27:08;101069.72;;;19.55;100.00
9419;BME280;4748;50.802;7.132;2022-10-16T17:29:35;101083.84;;;19.57;100.00
9419;BME280;4748;50.802;7.132;2022-10-16T17:32:00;101074.63;;;19.58;100.00
9419;BME280;4748;50.802;7.132;2022-10-16T17:34:25;101084.91;;;19.56;100.00
9419;BME280;4748;50.802;7.132;2022-10-16T17:36:51;101084.66;;;19.47;100.00
9419;BME280;4748;50.802;7.132;2022-10-16T17:39:17;101087.63;;;19.51;100.00
9419;BME280;4748;50.802;7.132;2022-10-16T17:41:43;101078.41;;;19.52;100.00
9419;BME280;4748;50.802;7.132;2022-10-16T17:44:10;101085.44;;;19.48;100.00
9419;BME280;4748;50.802;7.132;2022-10-16T17:46:43;101087.06;;;19.44;100.00
9419;BME280;4748;50.802;7.132;2022-10-16T17:49:09;101089.22;;;19.37;100.00
9419;BME280;4748;50.802;7.132;2022-10-16T17:51:35;101092.72;;;19.33;100.00
9419;BME280;4748;50.802;7.132;2022-10-16T17:54:00;101087.03;;;19.29;100.00
9419;BME280;4748;50.802;7.132;2022-10-16T17:56:26;101099.97;;;19.17;100.00
9419;BME280;4748;50.802;7.132;2022-10-16T17:58:54;101094.56;;;19.17;100.00
9419;BME280;4748;50.802;7.132;2022-10-16T18:01:26;101091.56;;;19.19;100.00
9419;BME280;4748;50.802;7.132;2022-10-16T18:03:53;101095.66;;;19.21;100.00
9419;BME280;4748;50.802;7.132;2022-10-16T18:06:20;101099.44;;;19.20;100.00
9419;BME280;4748;50.802;7.132;2022-10-16T18:08:46;101098.34;;;19.16;100.00